Time;durP1;ratioP1;P1;durP2;ratioP2;P2;SDS_P1;SDS_P2;PMS_P1;PMS_P2;Temp;Humidity;BMP_temperature;BMP_pressure;BME280_temperature;BME280_humidity;BME280_pressure;Samples;Min_cycle;Max_cycle;Signal;HPM_P1;HPM_P2
2021/05/24 00:00:10;;;;;;;7.62;1.80;;;;;;;14.95;58.90;99537.80;1708478;82;20972;-56
2021/05/24 00:02:37;;;;;;;5.25;1.10;;;;;;;14.95;58.71;99539.16;1709189;82;20952;-55
2021/05/24 00:05:05;;;;;;;3.45;1.20;;;;;;;14.95;58.29;99552.70;1711221;82;21054;-56
2021/05/24 00:07:32;;;;;;;2.60;1.02;;;;;;;14.96;58.01;99553.09;1709125;82;21004;-58
2021/05/24 00:09:58;;;;;;;1.98;0.90;;;;;;;14.96;57.47;99551.73;1709172;82;20958;-57
2021/05/24 00:12:26;;;;;;;1.42;0.80;;;;;;;14.97;57.27;99554.31;1711177;82;20928;-57
2021/05/24 00:14:54;;;;;;;5.53;1.07;;;;;;;14.99;57.04;99561.86;1707403;82;21545;-55
2021/05/24 00:17:22;;;;;;;2.60;0.88;;;;;;;15.01;57.06;99564.47;1707997;82;21343;-57
2021/05/24 00:19:50;;;;;;;1.52;0.78;;;;;;;15.01;57.28;99572.12;1708370;82;21650;-56
2021/05/24 00:22:17;;;;;;;6.85;0.98;;;;;;;15.01;57.49;99569.41;1712426;82;20933;-56
2021/05/24 00:24:43;;;;;;;4.10;1.10;;;;;;;15.04;57.75;99577.82;1709852;82;21056;-55
2021/05/24 00:27:12;;;;;;;2.60;1.07;;;;;;;15.06;57.88;99579.91;1710785;82;21513;-55
2021/05/24 00:29:39;;;;;;;4.12;1.00;;;;;;;15.07;57.95;99585.72;1709936;82;22000;-55
2021/05/24 00:32:06;;;;;;;3.70;1.00;;;;;;;15.08;58.18;99583.39;1707206;82;20904;-53
2021/05/24 00:34:32;;;;;;;1.30;0.90;;;;;;;15.09;58.40;99595.98;1688409;82;21548;-56
2021/05/24 00:36:58;;;;;;;2.45;1.45;;;;;;;15.09;58.57;99605.47;1690909;82;21107;-55
2021/05/24 00:39:25;;;;;;;3.35;0.80;;;;;;;15.09;58.60;99609.05;1691300;82;21115;-55
2021/05/24 00:41:51;;;;;;;1.35;0.80;;;;;;;15.10;58.70;99613.98;1688131;82;21181;-55
2021/05/24 00:44:17;;;;;;;2.15;0.80;;;;;;;15.10;59.07;99620.28;1694202;82;21385;-55
2021/05/24 00:46:43;;;;;;;3.05;0.70;;;;;;;15.11;59.54;99618.44;1655734;84;21616;-54
2021/05/24 00:49:10;;;;;;;4.20;0.60;;;;;;;15.09;60.05;99617.18;1694109;82;21135;-53
2021/05/24 00:51:36;;;;;;;1.65;0.60;;;;;;;15.07;60.79;99622.31;1691087;82;21080;-56
2021/05/24 00:54:04;;;;;;;1.35;0.40;;;;;;;15.04;61.31;99632.03;1689694;82;22439;-54
2021/05/24 00:56:30;;;;;;;0.70;0.50;;;;;;;15.02;61.76;99632.13;1692501;82;21368;-54
2021/05/24 00:58:57;;;;;;;1.75;0.50;;;;;;;15.00;62.19;99638.62;1670551;82;21119;-55
2021/05/24 01:01:28;;;;;;;2.55;0.40;;;;;;;14.98;63.05;99634.66;1618892;84;21150;-55
2021/05/24 01:03:56;;;;;;;3.02;0.40;;;;;;;14.98;63.70;99637.85;1655888;84;20959;-54
2021/05/24 01:06:22;;;;;;;2.42;0.57;;;;;;;14.96;64.25;99637.98;1658044;84;21004;-54
2021/05/24 01:08:48;;;;;;;2.20;0.60;;;;;;;14.95;65.18;99637.59;1657979;84;21050;-53
2021/05/24 01:11:15;;;;;;;0.90;0.40;;;;;;;14.94;66.33;99646.70;1654400;84;21239;-54
2021/05/24 01:13:43;;;;;;;2.27;0.53;;;;;;;14.92;67.05;99642.34;1653974;84;21182;-54
2021/05/24 01:16:09;;;;;;;2.40;0.40;;;;;;;14.88;67.99;99644.41;1652673;84;21150;-53
2021/05/24 01:18:37;;;;;;;1.87;0.42;;;;;;;14.83;68.60;99645.19;1654478;84;21143;-54
2021/05/24 01:21:13;;;;;;;0.60;0.33;;;;;;;14.76;69.14;99644.73;1652533;84;21091;-49
2021/05/24 01:23:41;;;;;;;1.32;0.40;;;;;;;14.66;69.56;99650.86;1656254;84;20993;-52
2021/05/24 01:26:07;;;;;;;1.80;0.50;;;;;;;14.58;70.25;99654.08;1629054;84;21027;-50
2021/05/24 01:28:34;;;;;;;1.57;0.50;;;;;;;14.54;70.76;99647.63;1696894;82;21367;-49
2021/05/24 01:31:01;;;;;;;1.27;0.50;;;;;;;14.53;71.15;99647.24;1689739;82;21176;-52
2021/05/24 01:33:28;;;;;;;1.15;0.60;;;;;;;14.47;71.59;99649.85;1676222;82;21465;-52
2021/05/24 01:35:55;;;;;;;1.22;0.50;;;;;;;14.42;71.94;99652.48;1666663;84;22234;-51
2021/05/24 01:38:21;;;;;;;3.62;0.50;;;;;;;14.38;72.19;99651.77;1656252;84;21178;-52
2021/05/24 01:40:48;;;;;;;1.42;0.40;;;;;;;14.34;72.56;99652.95;1658988;84;21123;-51
2021/05/24 01:43:15;;;;;;;2.25;0.45;;;;;;;14.30;72.74;99661.75;1657843;84;21123;-51
2021/05/24 01:45:42;;;;;;;1.55;0.50;;;;;;;14.28;73.06;99655.59;1658224;84;21438;-51
2021/05/24 01:48:08;;;;;;;0.90;0.40;;;;;;;14.28;73.33;99651.53;1669562;84;21471;-51
2021/05/24 01:50:36;;;;;;;1.47;0.40;;;;;;;14.27;73.56;99651.63;1667326;84;21205;-51
2021/05/24 01:53:02;;;;;;;1.37;0.50;;;;;;;14.26;73.80;99656.17;1664119;84;21132;-51
2021/05/24 01:55:29;;;;;;;1.10;0.50;;;;;;;14.26;73.95;99652.59;1665863;84;22285;-51
2021/05/24 01:57:56;;;;;;;0.88;0.57;;;;;;;14.22;74.04;99646.48;1664451;84;21493;-51
2021/05/24 02:00:24;;;;;;;6.17;0.50;;;;;;;14.18;74.18;99655.80;1666961;84;21214;-51
2021/05/24 02:02:53;;;;;;;0.93;0.45;;;;;;;14.16;74.32;99660.43;1666738;84;21988;-51
2021/05/24 02:05:20;;;;;;;1.42;0.40;;;;;;;14.15;74.56;99652.41;1667420;84;21113;-51
2021/05/24 02:07:47;;;;;;;2.15;0.40;;;;;;;14.12;74.72;99655.33;1666834;84;21128;-51
2021/05/24 02:10:18;;;;;;;1.52;0.50;;;;;;;14.10;74.98;99660.83;1667106;84;21166;-51
2021/05/24 02:12:46;;;;;;;1.82;0.40;;;;;;;14.12;75.17;99660.73;1668034;84;21202;-51
2021/05/24 02:15:13;;;;;;;3.87;0.55;;;;;;;14.12;75.40;99663.45;1668133;84;21158;-51
2021/05/24 02:17:40;;;;;;;0.60;0.50;;;;;;;14.13;75.58;99670.09;1665297;84;21559;-51
2021/05/24 02:20:08;;;;;;;2.52;0.60;;;;;;;14.14;75.62;99665.55;1667286;84;21105;-51
2021/05/24 02:22:34;;;;;;;1.00;0.60;;;;;;;14.13;75.63;99670.09;1666974;84;21142;-51
2021/05/24 02:25:01;;;;;;;11.10;0.70;;;;;;;14.12;75.65;99671.56;1669447;84;20963;-51
2021/05/24 02:27:27;;;;;;;2.30;0.50;;;;;;;14.05;75.70;99665.65;1668788;84;21019;-51
2021/05/24 02:29:53;;;;;;;1.98;0.50;;;;;;;13.99;75.68;99668.75;1668079;84;21209;-51
2021/05/24 02:32:21;;;;;;;3.55;0.47;;;;;;;13.94;75.58;99671.77;1666757;84;22536;-51
2021/05/24 02:34:47;;;;;;;0.75;0.40;;;;;;;13.91;75.54;99665.67;1704512;82;21423;-51
2021/05/24 02:37:13;;;;;;;0.90;0.50;;;;;;;13.88;75.45;99669.91;1704666;82;21103;-52
2021/05/24 02:39:40;;;;;;;1.20;0.40;;;;;;;13.87;75.68;99673.58;1704174;82;21229;-51
2021/05/24 02:42:06;;;;;;;0.85;0.45;;;;;;;13.84;75.78;99670.60;1703282;82;21593;-52
2021/05/24 02:44:33;;;;;;;1.92;0.50;;;;;;;13.81;75.87;99672.62;1707164;82;21730;-52
2021/05/24 02:46:59;;;;;;;2.37;0.55;;;;;;;13.76;75.96;99667.51;1705209;82;21141;-52
2021/05/24 02:49:25;;;;;;;6.30;0.50;;;;;;;13.69;76.23;99666.64;1706153;82;21130;-52
2021/05/24 02:51:52;;;;;;;3.90;0.50;;;;;;;13.63;76.43;99674.15;1670213;83;21122;-51
2021/05/24 02:54:18;;;;;;;1.20;0.50;;;;;;;13.60;76.54;99673.48;1704450;82;21138;-51
2021/05/24 02:56:44;;;;;;;0.50;0.40;;;;;;;13.59;76.71;99676.67;1703796;82;21135;-52
2021/05/24 02:59:10;;;;;;;0.70;0.42;;;;;;;13.60;76.90;99682.95;1706453;82;21103;-51
2021/05/24 03:01:38;;;;;;;0.80;0.40;;;;;;;13.61;76.96;99679.26;1707786;81;21879;-51
2021/05/24 03:04:07;;;;;;;1.00;0.50;;;;;;;13.62;77.03;99683.22;1705429;82;21083;-51
2021/05/24 03:06:33;;;;;;;2.40;0.50;;;;;;;13.63;77.04;99685.45;1706148;82;21550;-51
2021/05/24 03:09:00;;;;;;;1.32;0.60;;;;;;;13.63;76.99;99680.91;1705086;82;21695;-51
2021/05/24 03:11:26;;;;;;;3.80;0.60;;;;;;;13.66;77.03;99687.10;1706738;82;21774;-51
2021/05/24 03:13:53;;;;;;;0.78;0.50;;;;;;;13.66;76.94;99681.70;1703471;82;21103;-51
2021/05/24 03:16:19;;;;;;;1.32;0.60;;;;;;;13.65;77.01;99686.23;1706972;82;21084;-51
2021/05/24 03:18:47;;;;;;;1.15;0.50;;;;;;;13.67;77.03;99690.20;1707261;82;21111;-51
2021/05/24 03:21:13;;;;;;;0.80;0.50;;;;;;;13.69;77.14;99685.58;1667125;83;21146;-52
2021/05/24 03:23:40;;;;;;;1.25;0.50;;;;;;;13.69;77.29;99685.09;1707918;82;21103;-51
2021/05/24 03:26:06;;;;;;;1.50;0.60;;;;;;;13.70;77.42;99683.23;1707362;82;21150;-51
2021/05/24 03:28:32;;;;;;;0.70;0.50;;;;;;;13.71;77.44;99683.62;1706195;82;21250;-51
2021/05/24 03:31:00;;;;;;;1.20;0.55;;;;;;;13.70;77.36;99687.28;1705911;82;21008;-51
2021/05/24 03:33:26;;;;;;;0.60;0.40;;;;;;;13.64;77.40;99684.00;1704349;82;22222;-51
2021/05/24 03:35:53;;;;;;;0.70;0.45;;;;;;;13.60;77.43;99687.02;1700952;82;21124;-51
2021/05/24 03:38:19;;;;;;;3.00;0.50;;;;;;;13.59;77.66;99686.14;1706282;82;21123;-52
2021/05/24 03:40:46;;;;;;;1.25;0.40;;;;;;;13.60;77.75;99683.83;1706132;82;21154;-52
2021/05/24 03:43:12;;;;;;;0.95;0.50;;;;;;;13.59;77.79;99682.08;1705809;82;21040;-52
2021/05/24 03:45:39;;;;;;;0.60;0.40;;;;;;;13.57;77.80;99689.41;1703778;82;21912;-52
2021/05/24 03:48:06;;;;;;;1.40;0.40;;;;;;;13.59;77.86;99692.03;1702803;82;22057;-52
2021/05/24 03:50:33;;;;;;;1.35;0.35;;;;;;;13.60;77.80;99685.18;1703594;82;21146;-51
2021/05/24 03:53:01;;;;;;;0.60;0.47;;;;;;;13.57;77.87;99683.13;1710213;82;20980;-52
2021/05/24 03:55:27;;;;;;;1.22;0.53;;;;;;;13.56;77.97;99689.02;1707904;82;20948;-52
2021/05/24 03:57:54;;;;;;;1.77;0.50;;;;;;;13.52;77.84;99687.48;1710720;82;21988;-52
2021/05/24 04:00:21;;;;;;;1.30;0.40;;;;;;;13.47;77.92;99693.64;1711491;82;21463;-52
2021/05/24 04:02:47;;;;;;;1.05;0.20;;;;;;;13.46;77.93;99698.66;1705761;82;21130;-52
2021/05/24 04:05:20;;;;;;;0.68;0.40;;;;;;;13.42;77.91;99691.70;1706777;82;21190;-52
2021/05/24 04:07:49;;;;;;;2.10;0.37;;;;;;;13.41;78.16;99691.80;1706549;82;21158;-52
2021/05/24 04:10:14;;;;;;;3.20;0.50;;;;;;;13.39;78.22;99689.66;1706098;82;21150;-53
2021/05/24 04:12:40;;;;;;;1.20;0.50;;;;;;;13.37;78.51;99694.28;1707070;82;21642;-53
2021/05/24 04:15:07;;;;;;;0.93;0.50;;;;;;;13.38;78.56;99688.78;1704672;82;21167;-54
2021/05/24 04:17:37;;;;;;;2.52;0.50;;;;;;;13.36;78.83;99689.35;1709072;82;21040;-53
2021/05/24 04:20:07;;;;;;;1.72;0.70;;;;;;;13.34;78.91;99697.19;1704046;82;21617;-54
2021/05/24 04:22:34;;;;;;;1.67;0.80;;;;;;;13.30;78.94;99703.25;1704876;82;21113;-53
2021/05/24 04:25:01;;;;;;;2.70;0.70;;;;;;;13.24;79.13;99703.63;1705547;82;21175;-54
2021/05/24 04:27:27;;;;;;;1.62;0.80;;;;;;;13.19;79.30;99701.18;1670268;83;21165;-53
2021/05/24 04:29:53;;;;;;;7.97;1.70;;;;;;;13.17;79.60;99704.95;1706201;82;21166;-53
2021/05/24 04:32:19;;;;;;;8.18;1.37;;;;;;;13.13;79.86;99704.26;1706288;82;21104;-53
2021/05/24 04:34:46;;;;;;;5.05;2.12;;;;;;;13.13;79.98;99704.70;1712851;81;21118;-53
2021/05/24 04:37:12;;;;;;;4.87;1.30;;;;;;;13.13;80.14;99710.11;1712723;81;21155;-53
2021/05/24 04:39:42;;;;;;;3.85;0.98;;;;;;;13.16;80.24;99710.84;1712122;81;21198;-53
2021/05/24 04:42:07;;;;;;;3.70;1.00;;;;;;;13.20;80.02;99719.63;1712712;81;22545;-53
2021/05/24 04:44:33;;;;;;;2.15;1.00;;;;;;;13.21;79.91;99720.89;1714399;81;21536;-52
2021/05/24 04:47:00;;;;;;;2.75;1.12;;;;;;;13.20;79.86;99726.37;1714647;81;21541;-52
2021/05/24 04:49:26;;;;;;;3.72;1.05;;;;;;;13.19;79.86;99726.86;1714773;81;21107;-54
2021/05/24 04:51:52;;;;;;;1.20;0.80;;;;;;;13.16;79.86;99728.41;1710527;81;21256;-53
2021/05/24 04:54:18;;;;;;;3.90;0.70;;;;;;;13.08;79.86;99732.02;1711223;81;21100;-52
2021/05/24 04:56:45;;;;;;;1.90;0.70;;;;;;;13.00;80.04;99738.83;1714333;81;21150;-53
2021/05/24 04:59:11;;;;;;;1.87;0.62;;;;;;;12.97;80.23;99738.99;1712376;81;21162;-52
2021/05/24 05:01:37;;;;;;;2.17;0.50;;;;;;;12.97;80.35;99743.05;1713929;81;21400;-54
2021/05/24 05:04:06;;;;;;;1.50;0.55;;;;;;;12.99;80.23;99754.16;1714075;81;22085;-51
2021/05/24 05:06:32;;;;;;;4.20;0.80;;;;;;;12.99;80.10;99750.59;1689102;81;21102;-53
2021/05/24 05:08:58;;;;;;;2.35;0.53;;;;;;;13.00;80.02;99752.34;1713005;81;21154;-51
2021/05/24 05:11:25;;;;;;;2.40;0.80;;;;;;;13.02;79.84;99755.31;1713647;81;21688;-53
2021/05/24 05:13:51;;;;;;;1.82;0.70;;;;;;;13.05;79.59;99754.28;1713314;81;21122;-54
2021/05/24 05:16:17;;;;;;;2.37;0.98;;;;;;;13.09;79.37;99757.20;1714342;81;21063;-53
2021/05/24 05:18:45;;;;;;;1.75;0.78;;;;;;;13.09;79.34;99766.66;1717450;81;22216;-52
2021/05/24 05:21:11;;;;;;;1.30;0.80;;;;;;;13.07;79.22;99765.40;1718114;81;20924;-53
2021/05/24 05:23:38;;;;;;;1.50;0.90;;;;;;;13.07;79.22;99771.28;1716581;81;21086;-53
2021/05/24 05:26:05;;;;;;;1.65;0.80;;;;;;;13.05;79.00;99771.84;1711590;81;21169;-53
2021/05/24 05:28:31;;;;;;;1.27;0.70;;;;;;;13.01;79.07;99779.75;1713698;81;21690;-53
2021/05/24 05:30:58;;;;;;;1.02;0.65;;;;;;;13.00;79.13;99777.53;1712141;81;21521;-53
2021/05/24 05:33:25;;;;;;;0.60;0.50;;;;;;;12.99;78.92;99779.83;1713174;81;21747;-53
2021/05/24 05:35:55;;;;;;;0.70;0.50;;;;;;;13.00;78.78;99787.46;1709014;81;21586;-51
2021/05/24 05:38:19;;;;;;;1.32;0.50;;;;;;;12.97;78.66;99799.31;1708577;82;21482;-52
2021/05/24 05:40:50;;;;;;;2.25;0.40;;;;;;;12.92;78.77;99807.30;1708474;82;22440;-54
2021/05/24 05:43:14;;;;;;;2.35;0.60;;;;;;;12.89;78.71;99811.91;1708568;82;21087;-52
2021/05/24 05:45:40;;;;;;;0.98;0.50;;;;;;;12.89;78.79;99816.44;1707655;82;21302;-51
2021/05/24 05:48:07;;;;;;;0.88;0.45;;;;;;;12.88;78.88;99810.16;1706722;82;21675;-54
2021/05/24 05:50:33;;;;;;;0.53;0.40;;;;;;;12.91;78.90;99818.58;1708003;82;21565;-51
2021/05/24 05:53:00;;;;;;;0.98;0.60;;;;;;;12.95;78.73;99821.48;1711298;82;21587;-54
2021/05/24 05:55:26;;;;;;;1.32;0.50;;;;;;;12.94;78.32;99820.21;1709889;82;21068;-53
2021/05/24 05:57:52;;;;;;;2.35;0.40;;;;;;;12.92;78.59;99829.78;1706952;82;21083;-52
2021/05/24 06:00:19;;;;;;;0.80;0.50;;;;;;;12.90;78.39;99831.69;1709042;82;21121;-53
2021/05/24 06:02:45;;;;;;;1.27;0.40;;;;;;;12.87;78.41;99832.72;1709401;82;21549;-53
2021/05/24 06:05:12;;;;;;;1.30;0.40;;;;;;;12.85;78.54;99838.69;1648299;85;21846;-54
2021/05/24 06:07:39;;;;;;;0.88;0.40;;;;;;;12.85;78.72;99842.73;1712262;82;21600;-52
2021/05/24 06:10:06;;;;;;;0.68;0.40;;;;;;;12.85;78.89;99841.86;1709549;82;20945;-51
2021/05/24 06:12:34;;;;;;;0.88;0.30;;;;;;;12.87;78.98;99850.76;1707856;82;21674;-54
2021/05/24 06:15:01;;;;;;;1.70;0.28;;;;;;;12.90;78.98;99850.60;1676175;83;20956;-53
2021/05/24 06:17:27;;;;;;;0.62;0.30;;;;;;;12.95;79.00;99856.61;1709315;82;20932;-54
2021/05/24 06:19:53;;;;;;;0.60;0.30;;;;;;;12.97;79.02;99860.58;1705047;82;21309;-54
2021/05/24 06:22:20;;;;;;;0.30;0.30;;;;;;;12.99;78.84;99858.67;1704575;82;21627;-52
2021/05/24 06:24:46;;;;;;;1.02;0.30;;;;;;;13.02;78.54;99861.17;1703587;82;21633;-54
2021/05/24 06:27:12;;;;;;;0.40;0.30;;;;;;;13.01;78.42;99867.56;1710651;82;21409;-52
2021/05/24 06:29:39;;;;;;;0.85;0.30;;;;;;;12.98;78.29;99860.97;1711233;82;20996;-53
2021/05/24 06:32:05;;;;;;;0.50;0.30;;;;;;;12.98;78.37;99872.66;1707750;82;21107;-52
2021/05/24 06:34:32;;;;;;;0.55;0.30;;;;;;;12.98;78.32;99875.36;1702475;82;21203;-53
2021/05/24 06:36:58;;;;;;;0.40;0.20;;;;;;;12.98;77.84;99868.60;1690698;82;21139;-53
2021/05/24 06:39:25;;;;;;;0.65;0.28;;;;;;;13.00;77.35;99876.15;1693635;82;21147;-53
2021/05/24 06:41:51;;;;;;;1.00;0.30;;;;;;;13.04;77.14;99874.13;1692095;82;21108;-53
2021/05/24 06:44:18;;;;;;;0.47;0.30;;;;;;;13.04;76.55;99883.59;1689861;82;21214;-54
2021/05/24 06:46:44;;;;;;;0.40;0.25;;;;;;;13.01;76.18;99881.08;1692404;82;21179;-52
2021/05/24 06:49:10;;;;;;;2.10;0.28;;;;;;;12.99;76.33;99888.39;1690526;82;21167;-55
2021/05/24 06:51:37;;;;;;;0.45;0.20;;;;;;;12.98;75.87;99895.63;1691695;82;21211;-54
2021/05/24 06:54:04;;;;;;;1.77;0.30;;;;;;;12.97;75.03;99895.70;1690544;82;21170;-54
2021/05/24 06:56:30;;;;;;;0.50;0.40;;;;;;;12.97;75.15;99905.16;1658933;84;21744;-54
2021/05/24 06:58:56;;;;;;;1.98;0.40;;;;;;;12.98;75.11;99905.08;1691272;82;21191;-54
2021/05/24 07:01:23;;;;;;;0.40;0.30;;;;;;;12.99;75.77;99911.36;1690965;82;21120;-53
2021/05/24 07:03:49;;;;;;;0.30;0.10;;;;;;;13.03;75.27;99908.86;1687721;82;21143;-54
2021/05/24 07:06:16;;;;;;;3.67;0.20;;;;;;;13.06;75.34;99917.69;1690892;82;21127;-54
2021/05/24 07:08:43;;;;;;;0.20;0.20;;;;;;;13.08;75.65;99921.66;1690971;82;21119;-52
2021/05/24 07:11:10;;;;;;;0.30;0.20;;;;;;;13.15;75.88;99925.79;1691314;82;21445;-53
2021/05/24 07:13:37;;;;;;;3.05;0.20;;;;;;;13.19;75.02;99921.94;1690731;82;22211;-52
2021/05/24 07:16:04;;;;;;;0.95;0.20;;;;;;;13.21;74.69;99932.19;1694280;82;21090;-53
2021/05/24 07:18:32;;;;;;;0.40;0.20;;;;;;;13.19;74.21;99923.29;1689101;82;21399;-54
2021/05/24 07:20:59;;;;;;;1.47;0.20;;;;;;;13.16;73.77;99937.88;1692108;82;21095;-52
2021/05/24 07:23:26;;;;;;;0.30;0.20;;;;;;;13.18;73.76;99925.12;1692618;82;21128;-55
2021/05/24 07:25:52;;;;;;;0.50;0.30;;;;;;;13.25;74.07;99937.36;1690836;82;21652;-52
2021/05/24 07:28:19;;;;;;;1.37;0.40;;;;;;;13.32;73.86;99937.88;1688938;82;21218;-52
2021/05/24 07:30:45;;;;;;;0.23;0.20;;;;;;;13.36;74.08;99937.20;1688923;82;21098;-53
2021/05/24 07:33:11;;;;;;;0.10;0.10;;;;;;;13.41;73.33;99930.60;1690516;82;21133;-54
2021/05/24 07:35:38;;;;;;;0.17;0.10;;;;;;;13.45;73.00;99941.61;1694591;82;22002;-54
2021/05/24 07:38:05;;;;;;;1.75;0.10;;;;;;;13.49;72.63;99943.68;1693460;82;21836;-54
2021/05/24 07:40:31;;;;;;;1.22;0.20;;;;;;;13.52;72.31;99945.74;1696104;82;21628;-52
2021/05/24 07:42:57;;;;;;;2.15;0.20;;;;;;;13.58;72.23;99948.56;1696072;82;21084;-53
2021/05/24 07:45:24;;;;;;;0.30;0.20;;;;;;;13.64;72.18;99939.61;1697805;82;21190;-51
2021/05/24 07:47:50;;;;;;;0.10;0.10;;;;;;;13.75;72.09;99944.88;1694058;82;21246;-52
2021/05/24 07:50:16;;;;;;;0.20;0.10;;;;;;;13.83;71.26;99939.42;1695354;82;21139;-53
2021/05/24 07:52:42;;;;;;;0.45;0.10;;;;;;;13.92;70.65;99940.23;1698115;82;21184;-54
2021/05/24 07:55:11;;;;;;;0.20;0.10;;;;;;;13.97;70.09;99938.59;1695419;82;21134;-55
2021/05/24 07:57:38;;;;;;;0.23;0.10;;;;;;;13.96;69.40;99947.67;1700521;82;20963;-53
2021/05/24 08:00:07;;;;;;;0.30;0.10;;;;;;;13.96;70.10;99940.91;1698497;82;21170;-53
2021/05/24 08:02:34;;;;;;;2.05;0.20;;;;;;;14.01;69.83;99941.05;1697982;82;21470;-54
2021/05/24 08:05:00;;;;;;;0.75;0.20;;;;;;;14.04;69.44;99944.02;1672319;82;21147;-54
2021/05/24 08:07:28;;;;;;;0.10;0.10;;;;;;;14.06;68.85;99946.17;1693816;82;21115;-54
2021/05/24 08:09:54;;;;;;;1.45;0.17;;;;;;;14.10;68.77;99961.77;1698099;82;21381;-54
2021/05/24 08:12:20;;;;;;;0.53;0.20;;;;;;;14.05;67.63;99949.84;1693369;82;21111;-52
2021/05/24 08:14:47;;;;;;;0.42;0.10;;;;;;;14.01;68.40;99958.64;1696217;82;21077;-53
2021/05/24 08:17:15;;;;;;;1.10;0.10;;;;;;;14.01;68.13;99958.64;1697898;82;21213;-55
2021/05/24 08:19:42;;;;;;;1.07;0.10;;;;;;;14.06;68.59;99961.05;1696828;82;21122;-55
2021/05/24 08:22:10;;;;;;;0.20;0.10;;;;;;;14.11;67.88;99971.63;1694010;82;21100;-53
2021/05/24 08:24:36;;;;;;;0.28;0.20;;;;;;;14.10;68.16;99954.52;1699726;82;21107;-54
2021/05/24 08:27:03;;;;;;;0.30;0.20;;;;;;;14.16;69.13;99966.32;1698460;82;21113;-53
2021/05/24 08:29:30;;;;;;;1.27;0.30;;;;;;;14.27;68.56;99965.20;1694195;82;21076;-52
2021/05/24 08:31:56;;;;;;;2.95;0.10;;;;;;;14.34;68.45;99977.41;1698625;82;21073;-55
2021/05/24 08:34:23;;;;;;;0.47;0.20;;;;;;;14.45;68.75;99984.05;1696465;82;21571;-53
2021/05/24 08:36:51;;;;;;;0.68;0.30;;;;;;;14.56;68.59;99989.67;1681388;83;21126;-56
2021/05/24 08:39:17;;;;;;;6.05;0.50;;;;;;;14.65;68.16;99995.41;1654195;84;21902;-52
2021/05/24 08:41:46;;;;;;;1.10;0.30;;;;;;;14.69;67.20;100005.11;1696771;82;21393;-53
2021/05/24 08:44:13;;;;;;;1.25;0.20;;;;;;;14.67;66.50;100004.80;1674912;82;21027;-54
2021/05/24 08:46:40;;;;;;;0.88;0.20;;;;;;;14.59;66.35;100008.45;1700311;82;21323;-53
2021/05/24 08:49:06;;;;;;;0.35;0.20;;;;;;;14.50;66.48;100017.14;1698489;82;20953;-55
2021/05/24 08:51:33;;;;;;;0.35;0.20;;;;;;;14.45;66.51;100021.97;1697512;82;21556;-52
2021/05/24 08:54:00;;;;;;;1.47;0.20;;;;;;;14.36;66.01;100025.59;1696849;82;20956;-51
2021/05/24 08:56:27;;;;;;;0.57;0.20;;;;;;;14.30;66.57;100020.52;1698686;82;21746;-53
2021/05/24 08:58:57;;;;;;;0.33;0.13;;;;;;;14.29;67.29;100017.41;1699772;82;21405;-53
2021/05/24 09:01:24;;;;;;;0.30;0.10;;;;;;;14.32;68.03;100017.23;1699090;82;20984;-54
2021/05/24 09:04:00;;;;;;;0.47;0.17;;;;;;;14.41;68.52;100019.04;1696553;82;21046;-53
2021/05/24 09:06:41;;;;;;;0.30;0.20;;;;;;;14.50;68.53;100023.91;1698702;82;21371;-55
2021/05/24 09:09:15;;;;;;;0.47;0.10;;;;;;;14.58;68.77;100036.51;1699335;82;21008;-54
2021/05/24 09:11:45;;;;;;;0.65;0.20;;;;;;;14.62;68.04;100046.21;1698772;82;20937;-54
2021/05/24 09:14:22;;;;;;;3.25;0.20;;;;;;;14.62;68.10;100047.56;1699143;82;20946;-55
2021/05/24 09:16:58;;;;;;;0.17;0.10;;;;;;;14.58;66.82;100041.92;1700473;82;21110;-54
2021/05/24 09:19:26;;;;;;;0.20;0.20;;;;;;;14.52;67.07;100054.49;1697452;82;21055;-53
2021/05/24 09:21:59;;;;;;;1.47;0.15;;;;;;;14.50;67.42;100048.28;1701626;82;20929;-53
2021/05/24 09:24:37;;;;;;;0.20;0.10;;;;;;;14.53;67.91;100047.64;1699960;82;21593;-54
2021/05/24 09:27:09;;;;;;;0.98;0.10;;;;;;;14.58;67.06;100060.41;1700428;82;20901;-54
2021/05/24 09:29:45;;;;;;;0.20;0.10;;;;;;;14.64;67.44;100057.33;1694531;82;21028;-55
2021/05/24 09:32:18;;;;;;;0.42;0.10;;;;;;;14.76;66.82;100053.89;1694844;82;21131;-54
2021/05/24 09:34:46;;;;;;;1.22;0.10;;;;;;;14.87;66.67;100060.50;1695989;82;21101;-54
2021/05/24 09:37:12;;;;;;;0.42;0.20;;;;;;;14.99;66.56;100056.54;1681405;83;20989;-54
2021/05/24 09:39:39;;;;;;;0.95;0.20;;;;;;;15.15;66.04;100053.75;1682437;83;21113;-54
2021/05/24 09:42:09;;;;;;;3.52;0.13;;;;;;;15.27;65.30;100057.06;1680837;83;21625;-54
2021/05/24 09:44:44;;;;;;;1.37;0.10;;;;;;;15.35;65.34;100049.80;1681077;83;20991;-54
2021/05/24 09:49:30;;;;;;;0.37;0.20;;;;;;;15.54;63.58;100047.70;1751374;79;22696;-54
2021/05/24 09:51:57;;;;;;;0.30;0.20;;;;;;;15.52;64.13;100049.59;1724607;80;21338;-53
2021/05/24 09:54:35;;;;;;;0.37;0.20;;;;;;;15.57;63.69;100055.62;1723235;80;21128;-54
2021/05/24 09:57:05;;;;;;;0.20;0.10;;;;;;;15.61;63.14;100058.55;1724810;80;21011;-55
2021/05/24 09:59:35;;;;;;;0.35;0.20;;;;;;;15.62;62.76;100064.36;1675541;83;20975;-54
2021/05/24 10:02:05;;;;;;;0.13;0.10;;;;;;;15.64;62.92;100073.77;1681923;82;22340;-53
2021/05/24 10:04:34;;;;;;;0.33;0.13;;;;;;;15.62;62.00;100067.08;1685631;82;21214;-55
2021/05/24 10:07:01;;;;;;;2.50;0.10;;;;;;;15.65;61.78;100064.14;1689067;82;21090;-53
2021/05/24 10:09:33;;;;;;;0.40;0.10;;;;;;;15.70;60.97;100044.88;1691323;82;21305;-54
2021/05/24 10:12:02;;;;;;;0.33;0.10;;;;;;;15.73;61.66;100065.03;1685268;82;21028;-54
2021/05/24 10:14:30;;;;;;;0.17;0.10;;;;;;;15.78;61.45;100050.67;1690138;82;21489;-56
2021/05/24 10:17:03;;;;;;;0.30;0.10;;;;;;;15.79;59.88;100051.94;1689081;82;21159;-51
2021/05/24 10:19:28;;;;;;;1.00;0.10;;;;;;;15.83;59.94;100057.53;1685869;82;21182;-54
2021/05/24 10:21:56;;;;;;;0.40;0.10;;;;;;;15.85;59.57;100059.67;1681623;82;21171;-52
2021/05/24 10:24:25;;;;;;;0.30;0.10;;;;;;;15.93;59.53;100056.45;1690318;82;21102;-54
2021/05/24 10:26:53;;;;;;;0.30;0.10;;;;;;;15.95;59.21;100052.28;1686956;82;21107;-54
2021/05/24 10:29:19;;;;;;;0.30;0.10;;;;;;;15.97;59.69;100044.92;1692752;82;21115;-53
2021/05/24 10:31:50;;;;;;;0.47;0.10;;;;;;;15.99;58.64;100050.61;1693085;82;21151;-53
2021/05/24 10:34:23;;;;;;;0.55;0.15;;;;;;;16.07;59.68;100051.49;1685209;82;21050;-53
2021/05/24 10:37:11;;;;;;;0.50;0.05;;;;;;;16.18;59.04;100051.63;1688048;82;21537;-53
2021/05/24 10:39:55;;;;;;;0.42;0.10;;;;;;;16.18;59.04;100051.63;1689860;82;21487;-51
2021/05/24 10:42:43;;;;;;;0.20;0.10;;;;;;;16.23;58.64;100046.78;1675487;82;21165;-51
2021/05/24 10:45:23;;;;;;;0.50;0.10;;;;;;;16.35;56.35;100058.17;1668941;84;21111;-54
2021/05/24 10:47:58;;;;;;;2.58;0.30;;;;;;;16.35;56.35;100058.17;1682421;83;21105;-52
2021/05/24 10:50:25;;;;;;;0.47;0.20;;;;;;;16.33;56.27;100060.14;1670270;83;21119;-51
2021/05/24 10:53:09;;;;;;;0.33;0.20;;;;;;;16.34;56.50;100065.05;1700589;82;21570;-53
2021/05/24 10:55:44;;;;;;;1.90;0.10;;;;;;;16.34;57.55;100065.05;1701839;82;21107;-52
2021/05/24 10:58:14;;;;;;;0.72;0.20;;;;;;;16.37;57.24;100069.81;1688570;82;21165;-51
2021/05/24 11:01:00;;;;;;;1.47;0.10;;;;;;;16.39;57.13;100067.00;1686543;82;21664;-51
2021/05/24 11:03:26;;;;;;;1.00;0.15;;;;;;;16.40;56.67;100066.90;1684335;82;21121;-54
2021/05/24 11:06:17;;;;;;;2.15;0.10;;;;;;;16.43;56.32;100068.03;1685194;82;20985;-53
2021/05/24 11:08:56;;;;;;;0.30;0.10;;;;;;;16.48;56.16;100072.69;1687257;82;21758;-53
2021/05/24 11:11:26;;;;;;;0.40;0.20;;;;;;;16.53;55.65;100060.13;1669431;82;21098;-55
2021/05/24 11:14:06;;;;;;;0.47;0.20;;;;;;;16.57;56.09;100050.33;1700933;82;20944;-56
2021/05/24 11:16:34;;;;;;;0.42;0.10;;;;;;;16.61;54.00;100060.03;1698221;82;21627;-51
2021/05/24 11:19:09;;;;;;;0.80;0.30;;;;;;;16.61;55.21;100065.95;1697566;82;21135;-55
2021/05/24 11:21:38;;;;;;;1.05;0.10;;;;;;;16.61;55.21;100065.95;1699570;82;21090;-52
2021/05/24 11:24:35;;;;;;;0.17;0.10;;;;;;;16.68;55.37;100074.06;1696952;82;21490;-53
2021/05/24 11:26:43;;;;;;;0.82;0.30;;;;;;;16.74;54.77;100079.59;1695608;82;21520;-52
2021/05/24 11:29:15;;;;;;;2.60;0.40;;;;;;;16.83;55.88;100073.04;1682349;82;20937;-55
2021/05/24 11:31:54;;;;;;;1.32;0.40;;;;;;;16.95;55.26;100065.86;1683800;82;21596;-54
2021/05/24 11:34:35;;;;;;;2.22;0.30;;;;;;;16.97;53.88;100072.94;1685225;82;20944;-55
2021/05/24 11:37:06;;;;;;;0.82;0.30;;;;;;;17.00;53.73;100078.67;1684197;82;21584;-55